Time;durP1;ratioP1;P1;durP2;ratioP2;P2;SDS_P1;SDS_P2;PMS_P1;PMS_P2;Temp;Humidity;BMP_temperature;BMP_pressure;BME280_temperature;BME280_humidity;BME280_pressure;Samples;Min_cycle;Max_cycle;Signal;HPM_P1;HPM_P2
2022/06/12 00:01:05;;;;;;;8.52;3.50;;;18.60;68.40;;;;;;4966618;28;20069;-78
2022/06/12 00:03:33;;;;;;;9.27;4.05;;;18.50;69.30;;;;;;4950405;28;20060;-78
2022/06/12 00:05:59;;;;;;;7.60;3.30;;;18.50;68.90;;;;;;4951421;28;20030;-78
2022/06/12 00:08:26;;;;;;;5.63;3.42;;;18.40;70.10;;;;;;4952826;28;20061;-78
2022/06/12 00:10:52;;;;;;;7.75;3.30;;;18.50;70.30;;;;;;4950215;28;20077;-78
2022/06/12 00:13:21;;;;;;;7.45;2.88;;;18.60;71.10;;;;;;4967919;28;20598;-78
2022/06/12 00:15:47;;;;;;;8.80;3.30;;;18.40;70.10;;;;;;4967399;28;20027;-78
2022/06/12 00:18:12;;;;;;;9.00;3.38;;;18.30;70.10;;;;;;4969015;28;20443;-78
2022/06/12 00:20:38;;;;;;;10.18;3.28;;;18.30;70.60;;;;;;4967620;28;20038;-78
2022/06/12 00:23:08;;;;;;;9.20;3.40;;;18.40;71.80;;;;;;4953846;28;20030;-78
2022/06/12 00:25:34;;;;;;;5.07;3.13;;;18.50;71.30;;;;;;4938111;28;20034;-78
2022/06/12 00:27:59;;;;;;;6.35;3.58;;;18.30;70.70;;;;;;4967721;28;20601;-78
2022/06/12 00:30:25;;;;;;;13.23;4.50;;;18.20;70.90;;;;;;4950706;28;20030;-78
2022/06/12 00:32:52;;;;;;;5.65;2.95;;;18.00;70.70;;;;;;4966905;28;20039;-78
2022/06/12 00:35:20;;;;;;;3.28;2.30;;;18.00;71.10;;;;;;4967670;28;20530;-78
2022/06/12 00:37:46;;;;;;;10.20;3.92;;;18.00;71.50;;;;;;4951126;28;20058;-78
2022/06/12 00:40:12;;;;;;;6.20;3.80;;;18.00;71.60;;;;;;4950658;28;20497;-78
2022/06/12 00:42:43;;;;;;;6.90;3.08;;;17.90;70.90;;;;;;4952391;28;20030;-78
2022/06/12 00:45:27;;;;;;;9.38;3.47;;;18.00;72.50;;;;;;4953808;28;20034;-78
2022/06/12 00:48:01;;;;;;;8.00;3.50;;;17.90;71.70;;;;;;4967562;28;20061;-78
2022/06/12 00:50:27;;;;;;;10.73;3.80;;;18.00;72.70;;;;;;4967096;28;20061;-78
2022/06/12 00:52:52;;;;;;;8.77;3.58;;;17.90;72.00;;;;;;4951325;28;20444;-78
2022/06/12 00:55:26;;;;;;;5.63;3.38;;;17.70;72.40;;;;;;4967136;28;20110;-78
2022/06/12 00:57:54;;;;;;;6.50;3.22;;;17.60;72.50;;;;;;4957051;28;20526;-77
2022/06/12 01:00:20;;;;;;;6.18;2.67;;;17.50;72.80;;;;;;4952759;28;20932;-78
2022/06/12 01:02:46;;;;;;;9.63;2.75;;;17.50;72.80;;;;;;4969908;28;20041;-78
2022/06/12 01:07:58;;;;;;;7.68;2.85;;;17.50;73.60;;;;;;4967763;28;20137;-78
2022/06/12 01:10:28;;;;;;;4.97;2.90;;;17.40;73.40;;;;;;4961561;28;20038;-78
2022/06/12 01:12:56;;;;;;;6.55;3.28;;;17.30;73.90;;;;;;4950959;28;20037;-77
2022/06/12 01:15:24;;;;;;;6.15;2.55;;;17.40;74.70;;;;;;4949153;28;20554;-78
2022/06/12 01:17:50;;;;;;;4.80;3.33;;;17.40;73.90;;;;;;4962699;28;20031;-77
2022/06/12 01:20:17;;;;;;;9.07;3.95;;;17.30;74.70;;;;;;4961247;28;20077;-77
2022/06/12 01:22:57;;;;;;;9.18;2.80;;;17.20;74.70;;;;;;4945583;28;20035;-77
2022/06/12 01:26:04;;;;;;;4.30;2.35;;;17.10;74.60;;;;;;4969832;28;20038;-77
2022/06/12 01:28:40;;;;;;;7.82;3.75;;;17.20;75.30;;;;;;4953035;28;20562;-77
2022/06/12 01:31:25;;;;;;;5.25;2.88;;;17.00;75.40;;;;;;4945625;28;20585;-77
2022/06/12 01:34:32;;;;;;;6.88;2.85;;;17.00;76.30;;;;;;4969298;28;20043;-77
2022/06/12 01:37:18;;;;;;;3.58;2.70;;;17.20;76.70;;;;;;4907777;29;20038;-77
2022/06/12 01:40:07;;;;;;;7.03;3.08;;;17.00;76.40;;;;;;4893107;29;20044;-77
2022/06/12 01:42:35;;;;;;;7.63;3.15;;;16.90;77.40;;;;;;4934963;28;20035;-77
2022/06/12 01:45:03;;;;;;;4.35;3.28;;;16.80;76.30;;;;;;4980356;28;20049;-77
2022/06/12 01:47:58;;;;;;;6.88;2.70;;;16.80;77.20;;;;;;4952200;28;20129;-77
2022/06/12 01:50:44;;;;;;;7.40;3.78;;;16.70;77.00;;;;;;4965820;28;20041;-77
2022/06/12 01:53:17;;;;;;;8.85;4.05;;;16.60;76.70;;;;;;4962028;28;20034;-77
2022/06/12 01:55:51;;;;;;;6.78;3.45;;;16.50;77.60;;;;;;4969161;28;20045;-77
2022/06/12 01:58:49;;;;;;;8.02;3.65;;;16.40;76.70;;;;;;4986607;28;20030;-77
2022/06/12 02:01:52;;;;;;;5.72;3.10;;;16.30;76.70;;;;;;4962347;28;20154;-77
2022/06/12 02:04:41;;;;;;;7.80;3.50;;;16.30;77.20;;;;;;4890566;29;20464;-77
2022/06/12 02:07:26;;;;;;;7.80;3.83;;;16.20;77.40;;;;;;4963742;28;20492;-77
2022/06/12 02:09:59;;;;;;;5.32;2.95;;;16.30;78.70;;;;;;4950801;28;20054;-77
2022/06/12 02:15:23;;;;;;;8.05;3.75;;;16.20;78.40;;;;;;4967094;28;20085;-77
2022/06/12 02:17:54;;;;;;;7.72;3.45;;;16.10;78.40;;;;;;4968149;28;20082;-77
2022/06/12 02:20:21;;;;;;;5.72;3.80;;;16.00;78.30;;;;;;4960517;28;20035;-77
2022/06/12 02:22:47;;;;;;;10.80;3.50;;;16.00;78.40;;;;;;4937456;28;20114;-77
2022/06/12 02:25:18;;;;;;;11.43;4.38;;;15.90;78.70;;;;;;4964751;28;20031;-77
2022/06/12 02:27:47;;;;;;;8.82;4.13;;;15.80;78.00;;;;;;4967729;28;20046;-77
2022/06/12 02:30:19;;;;;;;5.97;3.70;;;15.70;78.90;;;;;;4967449;28;20026;-77
2022/06/12 02:32:50;;;;;;;7.63;2.90;;;15.80;79.50;;;;;;4945430;28;20529;-77
2022/06/12 02:35:27;;;;;;;7.03;3.05;;;15.80;80.90;;;;;;4968192;28;20038;-77
2022/06/12 02:37:59;;;;;;;6.47;2.95;;;15.70;79.20;;;;;;4952094;28;20039;-77
2022/06/12 02:40:29;;;;;;;12.38;4.53;;;15.60;79.70;;;;;;4971163;28;20034;-77
2022/06/12 02:42:54;;;;;;;6.45;3.72;;;15.60;80.90;;;;;;4971502;28;20062;-77
2022/06/12 02:45:39;;;;;;;8.93;4.05;;;15.60;80.70;;;;;;4965419;28;20109;-77
2022/06/12 02:48:05;;;;;;;5.82;3.10;;;15.70;81.80;;;;;;4953418;28;20043;-77
2022/06/12 02:50:34;;;;;;;14.45;4.88;;;15.70;81.60;;;;;;4953025;28;20192;-77
2022/06/12 02:53:10;;;;;;;8.73;3.38;;;15.50;81.40;;;;;;4965379;28;20027;-77
2022/06/12 02:55:58;;;;;;;5.53;2.70;;;15.50;81.40;;;;;;4938175;28;20035;-77
2022/06/12 02:58:48;;;;;;;6.68;3.40;;;15.30;81.70;;;;;;4936529;28;20506;-77
2022/06/12 03:01:17;;;;;;;7.38;3.67;;;15.20;81.50;;;;;;4970141;28;20101;-78
2022/06/12 03:03:53;;;;;;;5.88;3.20;;;15.10;81.00;;;;;;4951797;28;20567;-78
2022/06/12 03:06:18;;;;;;;;;;;15.10;81.30;;;;;;4971185;28;20443;-78
2022/06/12 03:08:47;;;;;;;7.35;4.50;;;15.00;80.90;;;;;;4959772;28;19957;-78
2022/06/12 03:11:18;;;;;;;7.07;3.90;;;14.90;80.80;;;;;;4950453;28;20038;-78
2022/06/12 03:13:44;;;;;;;6.18;3.63;;;14.90;80.60;;;;;;4984903;28;20045;-78
2022/06/12 03:16:16;;;;;;;13.63;4.57;;;14.80;80.50;;;;;;4954707;28;20042;-78
2022/06/12 03:18:48;;;;;;;10.70;4.70;;;14.60;82.30;;;;;;4970299;28;20112;-78
2022/06/12 03:21:31;;;;;;;7.30;4.53;;;14.50;82.90;;;;;;4966718;28;20038;-77
2022/06/12 03:24:15;;;;;;;12.23;4.82;;;14.50;80.90;;;;;;4971528;28;20041;-78
2022/06/12 03:27:18;;;;;;;12.38;5.00;;;14.40;82.00;;;;;;4970260;28;20697;-78
2022/06/12 03:30:02;;;;;;;13.50;4.72;;;14.40;82.20;;;;;;4968219;28;20074;-78
2022/06/12 03:32:30;;;;;;;11.95;4.07;;;14.30;82.00;;;;;;4968824;28;20046;-78
2022/06/12 03:35:16;;;;;;;5.88;3.38;;;14.20;82.50;;;;;;4968250;28;20031;-78
2022/06/12 03:37:44;;;;;;;;;;;14.30;81.70;;;;;;4965119;28;20050;-78
2022/06/12 03:40:33;;;;;;;5.90;3.28;;;14.30;81.60;;;;;;4964479;28;20357;-77
2022/06/12 03:43:05;;;;;;;9.45;3.80;;;14.30;81.60;;;;;;4962276;28;20042;-78
2022/06/12 03:45:42;;;;;;;7.95;3.40;;;14.20;82.70;;;;;;4967368;28;20031;-78
2022/06/12 03:48:30;;;;;;;4.78;2.70;;;14.30;83.50;;;;;;4965141;28;20117;-78
2022/06/12 03:51:10;;;;;;;8.07;3.53;;;14.40;83.60;;;;;;4969151;28;20125;-77
2022/06/12 03:53:42;;;;;;;9.32;4.35;;;14.30;82.80;;;;;;4969913;28;20039;-78
2022/06/12 03:59:16;;;;;;;6.93;3.25;;;14.20;83.90;;;;;;4972415;28;20604;-77
2022/06/12 04:01:42;;;;;;;9.77;4.30;;;14.30;84.80;;;;;;4954554;28;20045;-78
2022/06/12 04:04:08;;;;;;;6.43;3.10;;;14.40;85.70;;;;;;4950927;28;20046;-78
2022/06/12 04:06:33;;;;;;;8.30;4.97;;;14.50;86.50;;;;;;4962639;28;20162;-78
2022/06/12 04:09:04;;;;;;;9.40;4.38;;;14.60;86.10;;;;;;4972869;28;20046;-78
2022/06/12 04:11:31;;;;;;;12.52;4.63;;;14.70;86.20;;;;;;4971429;28;20041;-77
2022/06/12 04:13:57;;;;;;;10.73;4.03;;;14.70;85.50;;;;;;4966602;28;20117;-77
2022/06/12 04:16:54;;;;;;;11.77;4.45;;;14.70;85.70;;;;;;4965743;28;20182;-78
2022/06/12 04:19:22;;;;;;;14.02;4.50;;;14.80;85.40;;;;;;4951257;28;20077;-78
2022/06/12 04:22:01;;;;;;;9.80;4.10;;;14.90;86.60;;;;;;4969018;28;20062;-78
2022/06/12 04:24:39;;;;;;;11.10;4.55;;;15.10;84.80;;;;;;4953097;28;20038;-78
2022/06/12 04:27:14;;;;;;;11.60;4.22;;;15.20;84.60;;;;;;4952164;28;20098;-78
2022/06/12 04:29:47;;;;;;;8.27;3.50;;;15.30;85.20;;;;;;4968117;28;20141;-78
2022/06/12 04:32:13;;;;;;;8.18;4.28;;;15.40;83.80;;;;;;4968143;28;20027;-78
2022/06/12 04:34:40;;;;;;;10.07;4.32;;;15.60;84.80;;;;;;4952731;28;20074;-77
2022/06/12 04:37:29;;;;;;;7.53;3.65;;;15.70;84.30;;;;;;4952869;28;20440;-78
2022/06/12 04:39:55;;;;;;;8.93;3.88;;;15.90;84.00;;;;;;4950342;28;20517;-78
2022/06/12 04:42:21;;;;;;;9.70;3.47;;;16.10;84.00;;;;;;4951660;28;20043;-78
2022/06/12 04:44:47;;;;;;;7.53;3.42;;;16.20;83.90;;;;;;4969549;28;20043;-77
2022/06/12 04:47:14;;;;;;;8.13;3.85;;;16.50;84.30;;;;;;4948352;28;20033;-78
2022/06/12 04:49:40;;;;;;;7.72;3.42;;;16.60;83.60;;;;;;4951445;28;20110;-77
2022/06/12 04:52:07;;;;;;;6.63;3.53;;;16.80;83.20;;;;;;4950141;28;20118;-78
2022/06/12 04:54:33;;;;;;;14.63;3.88;;;17.00;82.30;;;;;;4949174;28;20027;-78
2022/06/12 04:56:58;;;;;;;9.65;3.30;;;17.20;83.70;;;;;;4948780;28;20053;-78
2022/06/12 04:59:24;;;;;;;8.95;3.50;;;17.40;84.00;;;;;;4965744;28;20030;-77
2022/06/12 05:01:50;;;;;;;7.63;3.33;;;17.60;84.60;;;;;;4971905;28;20372;-78
2022/06/12 05:04:16;;;;;;;9.13;3.15;;;17.80;84.70;;;;;;4958360;28;20030;-78
2022/06/12 05:06:42;;;;;;;5.97;2.80;;;18.00;83.40;;;;;;4955409;28;20147;-78
2022/06/12 05:09:08;;;;;;;6.32;3.00;;;18.30;84.30;;;;;;4949757;28;20622;-78
2022/06/12 05:11:33;;;;;;;4.85;2.58;;;18.50;83.80;;;;;;4950127;28;20027;-78
2022/06/12 05:13:59;;;;;;;7.28;3.13;;;18.70;82.50;;;;;;4973431;28;20092;-78
2022/06/12 05:16:32;;;;;;;9.15;2.92;;;18.90;84.20;;;;;;4952521;28;20042;-78
2022/06/12 05:18:58;;;;;;;3.83;2.63;;;19.10;83.40;;;;;;4966235;28;20031;-78
2022/06/12 05:21:25;;;;;;;9.57;2.78;;;19.40;84.30;;;;;;4951306;28;20026;-79
2022/06/12 05:23:50;;;;;;;9.75;3.90;;;19.60;83.20;;;;;;4966588;28;20446;-78
2022/06/12 05:26:16;;;;;;;7.22;2.90;;;19.80;83.30;;;;;;4951593;28;20035;-79
2022/06/12 05:28:42;;;;;;;7.15;2.42;;;20.10;83.60;;;;;;4969072;28;20487;-79
2022/06/12 05:31:07;;;;;;;6.35;2.80;;;20.30;82.80;;;;;;4969780;28;20031;-78
2022/06/12 05:33:33;;;;;;;6.50;2.70;;;20.40;82.50;;;;;;4967220;28;20027;-79
2022/06/12 05:35:58;;;;;;;6.68;2.15;;;20.70;81.90;;;;;;4952826;28;21069;-79
2022/06/12 05:38:24;;;;;;;8.95;2.75;;;21.00;82.40;;;;;;4953432;28;20586;-79
2022/06/12 05:40:50;;;;;;;5.15;2.60;;;21.20;82.40;;;;;;4966149;28;20039;-79
2022/06/12 05:43:16;;;;;;;7.10;2.35;;;21.50;82.40;;;;;;4950728;28;20491;-79
2022/06/12 05:45:41;;;;;;;5.78;2.42;;;21.70;82.10;;;;;;4963571;28;20130;-79
2022/06/12 05:48:11;;;;;;;7.45;2.67;;;21.90;81.50;;;;;;4968769;28;20034;-79
2022/06/12 05:50:43;;;;;;;8.52;2.47;;;22.20;81.50;;;;;;4952955;28;20035;-79
2022/06/12 05:53:09;;;;;;;11.10;2.45;;;22.40;80.90;;;;;;4968226;28;20183;-79
2022/06/12 05:55:35;;;;;;;5.53;2.33;;;22.60;80.70;;;;;;4934743;28;20542;-80
2022/06/12 05:58:01;;;;;;;6.80;2.25;;;22.80;80.30;;;;;;4965469;28;20166;-80
2022/06/12 06:00:27;;;;;;;5.22;2.15;;;23.00;79.60;;;;;;4952443;28;20536;-80
2022/06/12 06:02:53;;;;;;;8.60;2.35;;;23.30;80.00;;;;;;4951492;28;20042;-80
2022/06/12 06:05:19;;;;;;;7.28;2.17;;;23.60;79.50;;;;;;4950218;28;20074;-80
2022/06/12 06:07:44;;;;;;;8.43;1.77;;;23.70;77.90;;;;;;4966133;28;20129;-80
2022/06/12 06:10:14;;;;;;;9.55;2.35;;;23.90;77.90;;;;;;4966059;28;20406;-79
2022/06/12 06:12:40;;;;;;;5.07;1.95;;;24.20;77.40;;;;;;4950843;28;20499;-80
2022/06/12 06:15:06;;;;;;;6.00;1.80;;;24.30;76.10;;;;;;4969576;28;20033;-80
2022/06/12 06:17:32;;;;;;;4.97;1.75;;;24.40;74.10;;;;;;4966195;28;20059;-80
2022/06/12 06:20:00;;;;;;;9.52;2.35;;;23.90;70.00;;;;;;4971545;28;20066;-80
2022/06/12 06:22:26;;;;;;;11.80;2.22;;;24.40;75.90;;;;;;4948215;28;20097;-80
2022/06/12 06:24:51;;;;;;;4.78;1.83;;;24.80;74.60;;;;;;4970022;28;20487;-81
2022/06/12 06:27:17;;;;;;;9.35;2.00;;;25.10;73.80;;;;;;4956365;28;20121;-80
2022/06/12 06:29:43;;;;;;;6.93;2.33;;;23.90;69.20;;;;;;4966909;28;20031;-80
2022/06/12 06:32:10;;;;;;;5.40;2.03;;;24.00;70.30;;;;;;4958499;28;20031;-81
2022/06/12 06:34:36;;;;;;;8.85;2.83;;;24.90;70.60;;;;;;4957124;28;20647;-80
2022/06/12 06:37:02;;;;;;;8.02;2.20;;;24.60;74.20;;;;;;4972295;28;20046;-81
2022/06/12 06:39:28;;;;;;;7.93;2.63;;;25.40;71.20;;;;;;4951390;28;20406;-81
2022/06/12 06:41:53;;;;;;;12.70;2.67;;;25.50;70.30;;;;;;4968747;28;20046;-81
2022/06/12 06:47:03;;;;;;;18.10;5.32;;;26.10;68.20;;;;;;4966230;28;20034;-81
2022/06/12 06:49:29;;;;;;;14.88;4.13;;;26.20;67.10;;;;;;4954208;28;20113;-81
2022/06/12 06:51:55;;;;;;;14.02;4.10;;;26.20;66.70;;;;;;4966597;28;20047;-80
2022/06/12 06:54:21;;;;;;;16.70;3.88;;;26.30;66.00;;;;;;4964198;28;20561;-81
2022/06/12 06:56:46;;;;;;;11.13;2.88;;;26.40;65.20;;;;;;4935989;28;20514;-82
2022/06/12 06:59:12;;;;;;;7.60;2.17;;;26.50;64.60;;;;;;4960543;28;20035;-82
2022/06/12 07:01:37;;;;;;;9.68;2.40;;;25.40;62.10;;;;;;4935636;28;20483;-83
2022/06/12 07:04:03;;;;;;;6.88;2.08;;;25.00;62.80;;;;;;4951559;28;20137;-83
2022/06/12 07:06:29;;;;;;;5.63;2.08;;;25.70;65.80;;;;;;4953272;28;20522;-82
2022/06/12 07:08:55;;;;;;;6.68;2.38;;;25.70;62.50;;;;;;4951616;28;20093;-83
2022/06/12 07:11:21;;;;;;;8.65;2.00;;;26.10;64.40;;;;;;4951391;28;20513;-83
2022/06/12 07:13:47;;;;;;;9.57;1.90;;;26.50;63.70;;;;;;4962319;28;20038;-83
2022/06/12 07:16:12;;;;;;;7.40;1.65;;;25.90;62.70;;;;;;4966303;28;20027;-83
2022/06/12 07:18:38;;;;;;;4.93;1.48;;;26.70;64.40;;;;;;4952524;28;20501;-83
2022/06/12 07:21:04;;;;;;;7.65;1.85;;;27.10;62.40;;;;;;4950485;28;20089;-83
2022/06/12 07:23:29;;;;;;;8.18;1.85;;;27.20;63.00;;;;;;4966606;28;20034;-83
2022/06/12 07:25:57;;;;;;;6.30;1.95;;;27.40;60.60;;;;;;4950860;28;20043;-83
2022/06/12 07:28:23;;;;;;;10.13;1.80;;;26.40;60.20;;;;;;4950608;28;20482;-83
2022/06/12 07:30:50;;;;;;;8.85;2.05;;;26.90;63.20;;;;;;4958523;28;20119;-83
2022/06/12 07:33:15;;;;;;;3.42;1.35;;;27.40;59.70;;;;;;4966354;28;20043;-83
2022/06/12 07:35:41;;;;;;;7.22;1.90;;;27.00;60.70;;;;;;4967947;28;20044;-83
2022/06/12 07:38:07;;;;;;;8.55;2.33;;;27.60;60.20;;;;;;4930329;28;20042;-84
2022/06/12 07:40:39;;;;;;;5.32;1.30;;;27.50;59.70;;;;;;4950197;28;20035;-83
2022/06/12 07:43:05;;;;;;;8.70;1.85;;;27.70;58.80;;;;;;4965503;28;20039;-84
2022/06/12 07:45:30;;;;;;;6.30;1.88;;;28.10;59.20;;;;;;4951387;28;20068;-85
2022/06/12 07:47:57;;;;;;;5.15;1.98;;;28.10;58.30;;;;;;4949407;28;20515;-85
2022/06/12 07:50:22;;;;;;;5.28;1.52;;;27.90;59.30;;;;;;4951164;28;20740;-85
2022/06/12 07:52:48;;;;;;;4.95;1.70;;;28.20;57.90;;;;;;4964523;28;20058;-85
2022/06/12 07:55:15;;;;;;;6.32;1.83;;;28.20;59.00;;;;;;4961488;28;20026;-85
2022/06/12 07:57:41;;;;;;;7.40;1.73;;;28.30;58.40;;;;;;4967014;28;20050;-84
2022/06/12 08:00:07;;;;;;;7.63;1.80;;;28.70;58.00;;;;;;4950884;28;20033;-84
2022/06/12 08:02:33;;;;;;;11.63;2.97;;;28.80;56.60;;;;;;4950608;28;20031;-85
2022/06/12 08:04:59;;;;;;;6.88;1.80;;;28.60;57.60;;;;;;4963561;28;20707;-85
2022/06/12 08:07:24;;;;;;;9.23;2.47;;;29.00;56.20;;;;;;4960250;28;20046;-85
2022/06/12 08:09:50;;;;;;;6.50;1.65;;;29.00;56.60;;;;;;4946922;28;20119;-85
2022/06/12 08:12:16;;;;;;;6.28;1.73;;;28.80;57.10;;;;;;4965594;28;20034;-85
2022/06/12 08:14:41;;;;;;;5.25;1.60;;;29.30;56.10;;;;;;4964951;28;20023;-85
2022/06/12 08:17:07;;;;;;;6.50;1.75;;;29.00;55.80;;;;;;4967237;28;20128;-86
2022/06/12 08:22:17;;;;;;;6.32;1.40;;;28.40;56.70;;;;;;4966474;28;20505;-86
2022/06/12 08:24:42;;;;;;;5.18;1.50;;;28.20;58.80;;;;;;4966642;28;20051;-85
2022/06/12 08:27:08;;;;;;;5.07;1.60;;;28.70;56.10;;;;;;4936254;28;20093;-85
2022/06/12 08:29:34;;;;;;;10.05;2.22;;;29.40;55.50;;;;;;4950888;28;20042;-85
2022/06/12 08:32:19;;;;;;;2.70;0.90;;;29.30;53.50;;;;;;4950704;28;20620;-85
2022/06/12 08:34:49;;;;;;;5.45;1.65;;;28.80;53.00;;;;;;4945930;28;20739;-85
2022/06/12 08:37:26;;;;;;;6.72;1.40;;;28.90;52.60;;;;;;4951191;28;20581;-86
2022/06/12 08:39:53;;;;;;;3.65;1.30;;;28.10;53.90;;;;;;4950287;28;20121;-86
2022/06/12 08:42:29;;;;;;;4.15;0.90;;;28.00;52.10;;;;;;4964410;28;20062;-85
2022/06/12 08:45:00;;;;;;;6.20;1.40;;;28.60;54.00;;;;;;4962824;28;20035;-86
2022/06/12 08:47:36;;;;;;;2.05;1.00;;;28.80;51.10;;;;;;4969675;28;20061;-86
2022/06/12 08:50:21;;;;;;;2.10;1.23;;;29.30;52.10;;;;;;4967520;28;20045;-86
2022/06/12 08:52:47;;;;;;;4.30;0.98;;;29.70;51.50;;;;;;4950269;28;20117;-86
2022/06/12 08:55:21;;;;;;;4.95;0.93;;;29.50;51.20;;;;;;4951043;28;20085;-86
2022/06/12 08:58:19;;;;;;;1.92;0.60;;;29.20;51.70;;;;;;4964783;28;20039;-86
2022/06/12 09:00:44;;;;;;;3.35;0.80;;;29.20;50.90;;;;;;4947307;28;20073;-86
2022/06/12 09:03:18;;;;;;;2.63;0.70;;;29.70;48.80;;;;;;4945917;28;20027;-86
2022/06/12 09:06:09;;;;;;;2.38;0.90;;;29.70;49.60;;;;;;4922733;28;20149;-86
2022/06/12 09:08:57;;;;;;;2.58;0.90;;;29.90;48.90;;;;;;4956822;28;20045;-85
2022/06/12 09:11:34;;;;;;;1.85;0.55;;;30.20;48.70;;;;;;4919076;28;20494;-85
2022/06/12 09:14:14;;;;;;;2.60;0.70;;;30.10;49.60;;;;;;4913738;28;20399;-85
2022/06/12 09:16:58;;;;;;;4.75;1.23;;;29.80;47.20;;;;;;4948840;28;20104;-85
2022/06/12 09:19:31;;;;;;;4.57;1.27;;;29.40;47.30;;;;;;4979755;28;20406;-85
2022/06/12 09:22:05;;;;;;;3.90;0.85;;;29.30;47.70;;;;;;4947711;28;20042;-84
2022/06/12 09:24:48;;;;;;;5.82;0.77;;;29.30;47.40;;;;;;4980607;28;20035;-84
2022/06/12 09:27:39;;;;;;;5.22;0.80;;;29.40;47.30;;;;;;4961480;28;20045;-84
2022/06/12 09:30:28;;;;;;;2.70;0.80;;;29.80;49.30;;;;;;4964687;28;20050;-83
2022/06/12 09:33:06;;;;;;;3.30;0.80;;;30.30;47.90;;;;;;4962940;28;20476;-83
2022/06/12 09:35:35;;;;;;;4.05;1.05;;;30.40;48.30;;;;;;4964682;28;20038;-82
2022/06/12 09:38:25;;;;;;;4.95;1.10;;;31.00;47.60;;;;;;4957236;28;20035;-82
2022/06/12 09:41:12;;;;;;;2.22;1.02;;;30.70;45.80;;;;;;4962118;28;20089;-82
2022/06/12 09:43:55;;;;;;;3.90;1.35;;;30.80;48.20;;;;;;4964365;28;20058;-81
2022/06/12 09:46:31;;;;;;;4.00;1.10;;;31.00;47.50;;;;;;4952830;28;20043;-80
2022/06/12 09:49:16;;;;;;;6.25;1.60;;;30.90;48.20;;;;;;4981005;28;20454;-81
2022/06/12 09:52:16;;;;;;;4.15;1.52;;;30.90;48.80;;;;;;4965342;28;20035;-81
2022/06/12 09:54:44;;;;;;;5.65;2.10;;;31.80;47.30;;;;;;4961339;28;20475;-81
2022/06/12 09:57:18;;;;;;;6.85;1.40;;;32.00;45.80;;;;;;4940894;28;20055;-81
2022/06/12 09:59:57;;;;;;;7.93;2.33;;;32.20;45.90;;;;;;4956654;28;20085;-81
2022/06/12 10:02:31;;;;;;;4.50;1.33;;;32.40;44.70;;;;;;4948802;28;20031;-80
2022/06/12 10:05:31;;;;;;;3.53;1.10;;;32.30;45.80;;;;;;4946811;28;20027;-81
2022/06/12 10:08:02;;;;;;;5.00;1.20;;;32.40;45.40;;;;;;4940567;28;20121;-81
2022/06/12 10:10:50;;;;;;;4.55;1.08;;;32.60;44.30;;;;;;4968497;28;20394;-80
2022/06/12 10:13:20;;;;;;;7.03;1.45;;;32.80;45.10;;;;;;4955160;28;20042;-80
2022/06/12 10:15:55;;;;;;;4.22;1.33;;;32.70;46.10;;;;;;4956468;28;20035;-80
2022/06/12 10:18:27;;;;;;;5.72;1.92;;;33.00;45.30;;;;;;4965773;28;20127;-80
2022/06/12 10:20:55;;;;;;;6.28;1.33;;;33.40;43.40;;;;;;4948180;28;20050;-80
2022/06/12 10:23:21;;;;;;;4.22;1.50;;;33.50;44.50;;;;;;4949142;28;20032;-80
2022/06/12 10:25:51;;;;;;;8.30;1.58;;;33.20;44.40;;;;;;4962179;28;20090;-80
2022/06/12 10:28:30;;;;;;;2.67;1.27;;;33.10;43.60;;;;;;4952513;28;20035;-80
2022/06/12 10:31:05;;;;;;;6.88;2.25;;;32.90;45.20;;;;;;4966418;28;20035;-80
2022/06/12 10:33:47;;;;;;;7.32;2.60;;;32.30;43.50;;;;;;4968206;28;20039;-80
2022/06/12 10:36:21;;;;;;;4.50;1.48;;;32.90;44.50;;;;;;4963712;28;20066;-80
2022/06/12 10:38:47;;;;;;;6.87;1.77;;;33.00;44.70;;;;;;4947357;28;20046;-81
2022/06/12 10:41:26;;;;;;;7.68;1.80;;;33.30;45.00;;;;;;4951187;28;20391;-80
2022/06/12 10:43:54;;;;;;;7.25;1.85;;;33.30;44.90;;;;;;4950412;28;20050;-80
2022/06/12 10:46:31;;;;;;;8.10;1.83;;;33.50;44.70;;;;;;4962979;28;20034;-80
2022/06/12 10:49:15;;;;;;;5.47;1.30;;;33.80;44.40;;;;;;4968612;28;20410;-80
2022/06/12 10:51:41;;;;;;;5.00;1.73;;;34.00;44.80;;;;;;4950786;28;20038;-80
2022/06/12 10:54:18;;;;;;;3.28;1.40;;;34.20;43.80;;;;;;4961614;28;20521;-80
2022/06/12 10:57:10;;;;;;;3.92;1.33;;;34.50;43.70;;;;;;4947476;28;20403;-80
2022/06/12 10:59:42;;;;;;;7.32;1.67;;;34.50;43.60;;;;;;4934751;28;20447;-80
2022/06/12 11:02:39;;;;;;;8.48;1.58;;;34.40;43.10;;;;;;4960382;28;20456;-80
2022/06/12 11:05:29;;;;;;;3.58;1.45;;;34.40;44.10;;;;;;4965321;28;20438;-80
2022/06/12 11:08:00;;;;;;;3.05;1.30;;;35.00;43.40;;;;;;4967844;28;20038;-78
2022/06/12 11:10:43;;;;;;;4.57;1.38;;;35.20;42.50;;;;;;4961860;28;20034;-78
2022/06/12 11:13:30;;;;;;;5.32;1.85;;;35.30;41.70;;;;;;4944139;28;20062;-81
2022/06/12 11:16:07;;;;;;;4.55;1.63;;;35.30;41.60;;;;;;4957584;28;20042;-80
2022/06/12 11:18:58;;;;;;;3.08;1.42;;;35.40;41.30;;;;;;4949712;28;20081;-81
2022/06/12 11:21:54;;;;;;;3.70;1.42;;;35.70;41.20;;;;;;4964493;28;20035;-81
2022/06/12 11:24:29;;;;;;;2.28;1.38;;;35.50;42.00;;;;;;4957113;28;20042;-81
2022/06/12 11:27:17;;;;;;;5.28;1.73;;;35.60;41.20;;;;;;4963191;28;20065;-81
2022/06/12 11:30:03;;;;;;;4.35;1.55;;;35.90;40.70;;;;;;4965198;28;20097;-78
2022/06/12 11:32:36;;;;;;;5.95;1.45;;;35.90;41.10;;;;;;4965524;28;20027;-80
2022/06/12 11:35:15;;;;;;;6.28;1.80;;;35.50;39.40;;;;;;4949505;28;20194;-80
2022/06/12 11:38:06;;;;;;;6.30;1.52;;;36.00;40.90;;;;;;4945860;28;20042;-80
2022/06/12 11:40:45;;;;;;;5.18;1.85;;;36.50;40.70;;;;;;4964671;28;20438;-80
2022/06/12 11:43:19;;;;;;;4.97;1.00;;;36.70;40.60;;;;;;4949394;28;20402;-79
2022/06/12 11:45:54;;;;;;;11.57;1.63;;;36.80;40.10;;;;;;4981012;28;20453;-80
2022/06/12 11:48:40;;;;;;;6.70;1.30;;;36.70;39.20;;;;;;4965619;28;20038;-80
2022/06/12 11:51:24;;;;;;;8.43;1.75;;;36.50;39.30;;;;;;4980982;28;20085;-80
2022/06/12 11:53:58;;;;;;;4.53;1.10;;;36.50;39.60;;;;;;4957371;28;20031;-80
2022/06/12 11:56:45;;;;;;;5.72;1.40;;;36.40;39.80;;;;;;4938650;28;20047;-80
2022/06/12 11:59:17;;;;;;;3.85;1.48;;;36.40;38.50;;;;;;4964446;28;20047;-80
2022/06/12 12:01:48;;;;;;;5.78;1.55;;;36.20;39.00;;;;;;4980948;28;20035;-80
2022/06/12 12:04:34;;;;;;;4.05;1.85;;;36.20;38.10;;;;;;4978067;28;20102;-79
2022/06/12 12:07:44;;;;;;;5.10;1.80;;;35.90;40.20;;;;;;4950523;28;20035;-80
2022/06/12 12:10:26;;;;;;;5.60;2.13;;;35.80;39.30;;;;;;4948196;28;20027;-81
2022/06/12 12:13:01;;;;;;;6.68;1.85;;;35.90;39.40;;;;;;4948358;28;20062;-80
2022/06/12 12:15:42;;;;;;;6.18;1.85;;;35.80;38.80;;;;;;4952052;28;20026;-80
2022/06/12 12:18:12;;;;;;;5.03;1.80;;;35.40;39.90;;;;;;4948477;28;20031;-80
2022/06/12 12:20:40;;;;;;;7.72;1.90;;;35.30;39.10;;;;;;4963795;28;20027;-80
2022/06/12 12:23:15;;;;;;;8.20;2.20;;;35.10;39.40;;;;;;4963244;28;20042;-80
2022/06/12 12:25:49;;;;;;;8.02;2.10;;;35.00;39.60;;;;;;4949838;28;20035;-80
2022/06/12 12:28:22;;;;;;;4.93;1.83;;;35.10;40.00;;;;;;4956766;28;20031;-80
2022/06/12 12:30:47;;;;;;;5.68;1.40;;;35.00;40.50;;;;;;4932249;28;20654;-80
2022/06/12 12:33:16;;;;;;;4.35;1.50;;;34.70;40.50;;;;;;4960526;28;20037;-80
2022/06/12 12:41:23;;;;;;;4.88;1.77;;;34.30;41.80;;;;;;4964225;28;20046;-79
2022/06/12 12:43:57;;;;;;;11.38;2.15;;;34.10;41.20;;;;;;4948470;28;20034;-80
2022/06/12 12:46:25;;;;;;;7.80;2.38;;;33.90;42.40;;;;;;4933446;28;20035;-80
2022/06/12 12:48:53;;;;;;;6.78;2.03;;;33.70;41.80;;;;;;4962712;28;20046;-80
2022/06/12 12:51:35;;;;;;;9.60;2.55;;;33.50;41.90;;;;;;4949229;28;20030;-80
2022/06/12 12:54:16;;;;;;;8.02;1.60;;;33.40;42.50;;;;;;4962173;28;20031;-80
2022/06/12 12:56:56;;;;;;;8.55;1.90;;;33.60;42.20;;;;;;4965257;28;20470;-79
2022/06/12 12:59:22;;;;;;;9.10;1.88;;;33.80;41.50;;;;;;4929786;28;20046;-80
2022/06/12 13:01:48;;;;;;;7.63;2.20;;;33.80;42.40;;;;;;4948946;28;20039;-80
2022/06/12 13:04:22;;;;;;;6.47;1.63;;;33.90;42.30;;;;;;4947463;28;20027;-80
2022/06/12 13:07:15;;;;;;;7.10;1.75;;;33.90;41.20;;;;;;4944240;28;20089;-80
2022/06/12 13:10:01;;;;;;;4.45;1.60;;;33.70;41.50;;;;;;4964107;28;20383;-80
2022/06/12 13:12:48;;;;;;;6.00;2.08;;;33.80;43.30;;;;;;4963490;28;20038;-80
2022/06/12 13:15:42;;;;;;;6.03;1.83;;;34.00;42.40;;;;;;4972918;28;20062;-80
2022/06/12 13:18:27;;;;;;;3.63;1.35;;;34.30;42.40;;;;;;4963656;28;20019;-80
2022/06/12 13:21:08;;;;;;;8.10;1.90;;;34.50;41.70;;;;;;4948017;28;20027;-80
2022/06/12 13:23:45;;;;;;;5.57;1.80;;;34.60;41.40;;;;;;4961667;28;20045;-80
2022/06/12 13:26:13;;;;;;;4.60;1.63;;;35.00;41.60;;;;;;4935268;28;20027;-80
2022/06/12 13:28:39;;;;;;;7.97;2.08;;;35.20;40.80;;;;;;4960374;28;20491;-80
2022/06/12 13:31:05;;;;;;;8.65;1.85;;;35.60;39.10;;;;;;4962989;28;20086;-80
2022/06/12 13:33:35;;;;;;;11.30;2.20;;;35.70;40.40;;;;;;4948324;28;20042;-80
2022/06/12 13:36:10;;;;;;;4.93;1.42;;;35.70;40.90;;;;;;4960683;28;20098;-80